createdAt,value
2023-05-09T00:00:51.859Z,14.35
2023-05-09T00:03:18.804Z,14.27
2023-05-09T00:05:46.262Z,14.35
2023-05-09T00:08:13.785Z,14.93
2023-05-09T00:10:40.850Z,12.35
2023-05-09T00:13:08.126Z,13.95
2023-05-09T00:15:35.691Z,15.38
2023-05-09T00:18:02.695Z,13.38
2023-05-09T00:20:29.809Z,13.13
2023-05-09T00:22:57.186Z,13.73
2023-05-09T00:25:24.227Z,13.10
2023-05-09T00:27:51.164Z,14.35
2023-05-09T00:30:18.339Z,11.50
2023-05-09T00:32:45.404Z,14.38
2023-05-09T00:35:12.571Z,11.77
2023-05-09T00:37:40.015Z,12.93
2023-05-09T00:40:09.201Z,14.10
2023-05-09T00:42:36.727Z,13.20
2023-05-09T00:45:04.148Z,12.80
2023-05-09T00:47:31.458Z,12.15
2023-05-09T00:49:59.592Z,15.38
2023-05-09T00:52:27.660Z,11.90
2023-05-09T00:54:55.949Z,15.13
2023-05-09T00:57:23.396Z,11.23
2023-05-09T00:59:50.821Z,14.05
2023-05-09T01:02:18.856Z,13.40
2023-05-09T01:04:47.282Z,14.65
2023-05-09T01:07:30.354Z,11.43
2023-05-09T01:10:10.522Z,12.23
2023-05-09T01:13:15.408Z,11.23
2023-05-09T01:16:20.358Z,10.90
2023-05-09T01:19:01.080Z,10.65
2023-05-09T01:21:31.596Z,12.23
2023-05-09T01:24:17.357Z,12.95
2023-05-09T01:27:07.822Z,13.02
2023-05-09T01:29:39.438Z,13.55
2023-05-09T01:32:17.419Z,12.02
2023-05-09T01:34:47.798Z,11.73
2023-05-09T01:37:18.907Z,12.30
2023-05-09T01:39:53.190Z,12.50
2023-05-09T01:42:21.551Z,12.38
2023-05-09T01:44:49.866Z,14.40
2023-05-09T01:47:19.644Z,13.00
2023-05-09T01:49:48.486Z,12.63
2023-05-09T01:52:19.931Z,10.93
2023-05-09T01:54:49.861Z,11.75
2023-05-09T01:57:19.330Z,12.48
2023-05-09T01:59:49.003Z,15.27
2023-05-09T02:02:17.170Z,14.38
2023-05-09T02:04:45.714Z,12.93
2023-05-09T02:07:13.612Z,13.00
2023-05-09T02:09:40.856Z,14.25
2023-05-09T02:12:08.386Z,13.05
2023-05-09T02:14:35.713Z,14.60
2023-05-09T02:17:06.983Z,13.52
2023-05-09T02:19:35.851Z,12.68
2023-05-09T02:22:05.127Z,14.60
2023-05-09T02:24:37.043Z,14.35
2023-05-09T02:27:05.432Z,12.07
2023-05-09T02:29:41.737Z,14.43
2023-05-09T02:32:13.917Z,16.05
2023-05-09T02:34:42.689Z,12.90
2023-05-09T02:37:11.130Z,13.13
2023-05-09T02:39:38.194Z,14.98
2023-05-09T02:42:14.062Z,14.02
2023-05-09T02:44:41.127Z,13.77
2023-05-09T02:47:08.499Z,13.57
2023-05-09T02:49:36.060Z,13.73
2023-05-09T02:52:04.861Z,14.68
2023-05-09T02:54:33.433Z,14.50
2023-05-09T02:57:00.603Z,13.95
2023-05-09T02:59:28.254Z,13.37
2023-05-09T03:01:56.118Z,14.23
2023-05-09T03:04:23.518Z,14.53
2023-05-09T03:06:50.530Z,15.75
2023-05-09T03:09:17.848Z,14.85
2023-05-09T03:11:45.114Z,13.90
2023-05-09T03:14:13.337Z,13.30
2023-05-09T03:16:40.375Z,14.63
2023-05-09T03:19:15.835Z,12.27
2023-05-09T03:21:42.902Z,12.10
2023-05-09T03:24:10.913Z,12.23
2023-05-09T03:26:38.121Z,12.57
2023-05-09T03:29:05.699Z,13.53
2023-05-09T03:31:32.871Z,13.57
2023-05-09T03:33:59.913Z,11.63
2023-05-09T03:36:28.114Z,12.80
2023-05-09T03:38:55.880Z,13.10
2023-05-09T03:41:23.888Z,10.88
2023-05-09T03:43:50.831Z,12.00
2023-05-09T03:46:17.794Z,12.43
2023-05-09T03:48:47.810Z,11.63
2023-05-09T03:51:15.790Z,12.35
2023-05-09T03:53:47.274Z,12.10
2023-05-09T03:56:15.648Z,10.93
2023-05-09T03:58:48.965Z,12.60
2023-05-09T04:01:16.561Z,10.37
2023-05-09T04:03:44.794Z,10.20
2023-05-09T04:06:13.750Z,10.53
2023-05-09T04:08:44.059Z,9.63
2023-05-09T04:11:11.106Z,9.93
2023-05-09T04:13:41.235Z,11.23
2023-05-09T04:16:21.617Z,9.25
2023-05-09T04:18:49.548Z,10.40
2023-05-09T04:21:16.495Z,10.02
2023-05-09T04:23:47.166Z,10.05
2023-05-09T04:26:15.643Z,13.67
2023-05-09T04:28:45.569Z,10.45
2023-05-09T04:31:15.091Z,10.90
2023-05-09T04:33:45.419Z,10.77
2023-05-09T04:36:12.704Z,12.48
2023-05-09T04:38:39.644Z,11.50
2023-05-09T04:41:11.072Z,10.23
2023-05-09T04:43:38.162Z,11.37
2023-05-09T04:46:07.774Z,11.17
2023-05-09T04:48:36.985Z,9.25
2023-05-09T04:51:04.092Z,11.60
2023-05-09T04:53:31.970Z,10.73
2023-05-09T04:55:59.378Z,10.95
2023-05-09T04:58:26.749Z,10.93
2023-05-09T05:00:55.849Z,10.48
2023-05-09T05:03:22.852Z,10.30
2023-05-09T05:05:49.848Z,11.77
2023-05-09T05:08:17.373Z,10.32
2023-05-09T05:10:45.341Z,9.40
2023-05-09T05:13:14.207Z,9.93
2023-05-09T05:15:45.124Z,9.65
2023-05-09T05:18:13.468Z,11.48
2023-05-09T05:20:41.850Z,9.75
2023-05-09T05:23:10.349Z,9.68
2023-05-09T05:25:38.105Z,9.15
2023-05-09T05:28:06.435Z,10.35
2023-05-09T05:30:34.534Z,11.80
2023-05-09T05:33:02.954Z,9.30
2023-05-09T05:35:30.045Z,9.20
2023-05-09T05:37:57.991Z,14.32
2023-05-09T05:40:26.335Z,10.07
2023-05-09T05:42:54.769Z,12.43
2023-05-09T05:45:22.476Z,10.27
2023-05-09T05:47:53.014Z,9.40
2023-05-09T05:50:20.843Z,8.90
2023-05-09T05:52:47.979Z,10.45
2023-05-09T05:55:17.579Z,9.07
2023-05-09T05:57:47.697Z,9.82
2023-05-09T06:00:16.816Z,9.85
2023-05-09T06:02:48.416Z,8.75
2023-05-09T06:05:24.771Z,9.98
2023-05-09T06:07:52.289Z,8.95
2023-05-09T06:10:19.286Z,8.63
2023-05-09T06:12:46.327Z,9.05
2023-05-09T06:15:13.528Z,9.05
2023-05-09T06:17:44.600Z,8.52
2023-05-09T06:20:11.674Z,8.95
2023-05-09T06:22:38.673Z,9.38
2023-05-09T06:25:08.050Z,8.50
2023-05-09T06:27:36.534Z,8.32
2023-05-09T06:30:14.189Z,9.32
2023-05-09T06:32:50.772Z,9.98
2023-05-09T06:35:17.683Z,9.20
2023-05-09T06:37:46.478Z,8.20
2023-05-09T06:40:15.649Z,8.10
2023-05-09T06:42:42.604Z,8.68
2023-05-09T06:45:10.226Z,8.65
2023-05-09T06:47:37.200Z,7.70
2023-05-09T06:50:05.123Z,7.07
2023-05-09T06:52:32.040Z,7.20
2023-05-09T06:54:58.957Z,7.85
2023-05-09T06:57:26.040Z,7.00
2023-05-09T06:59:53.057Z,7.82
2023-05-09T07:02:20.039Z,7.47
2023-05-09T07:04:47.293Z,7.03
2023-05-09T07:07:14.452Z,6.75
2023-05-09T07:09:41.664Z,7.00
2023-05-09T07:12:08.645Z,6.57
2023-05-09T07:14:35.778Z,6.70
2023-05-09T07:17:18.238Z,5.65
2023-05-09T07:19:48.681Z,6.43
2023-05-09T07:22:15.972Z,5.97
2023-05-09T07:24:44.516Z,6.38
2023-05-09T07:27:11.450Z,6.93
2023-05-09T07:29:38.608Z,6.05
2023-05-09T07:32:06.381Z,5.93
2023-05-09T07:34:33.457Z,5.38
2023-05-09T07:37:00.816Z,5.25
2023-05-09T07:39:27.806Z,5.45
2023-05-09T07:41:54.663Z,6.88
2023-05-09T07:44:21.643Z,6.03
2023-05-09T07:46:48.563Z,5.47
2023-05-09T07:49:15.550Z,6.18
2023-05-09T07:51:42.628Z,6.15
2023-05-09T07:54:10.218Z,5.63
2023-05-09T07:56:37.245Z,5.78
2023-05-09T07:59:04.305Z,5.95
2023-05-09T08:01:31.323Z,5.97
2023-05-09T08:03:58.390Z,6.15
2023-05-09T08:06:26.396Z,6.35
2023-05-09T08:08:53.577Z,5.32
2023-05-09T08:11:20.548Z,5.45
2023-05-09T08:13:48.208Z,5.53
2023-05-09T08:16:17.315Z,6.30
2023-05-09T08:18:44.646Z,5.53
2023-05-09T08:21:12.009Z,5.65
2023-05-09T08:23:40.608Z,6.28
2023-05-09T08:26:07.559Z,4.72
2023-05-09T08:28:34.595Z,5.22
2023-05-09T08:31:02.334Z,5.40
2023-05-09T08:33:29.379Z,5.60
2023-05-09T08:35:56.733Z,5.53
2023-05-09T08:38:26.878Z,5.65
2023-05-09T08:41:00.352Z,4.68
2023-05-09T08:43:29.668Z,5.97
2023-05-09T08:46:06.399Z,7.30
2023-05-09T08:48:37.568Z,4.65
2023-05-09T08:51:06.755Z,4.85
2023-05-09T08:53:34.447Z,3.92
2023-05-09T08:56:03.475Z,3.78
2023-05-09T08:58:32.048Z,3.58
2023-05-09T09:01:01.445Z,3.83
2023-05-09T09:03:28.733Z,4.07
2023-05-09T09:05:58.189Z,3.17
2023-05-09T09:08:27.512Z,2.70
2023-05-09T09:10:54.751Z,2.78
2023-05-09T09:13:23.314Z,2.60
2023-05-09T09:15:53.228Z,2.85
2023-05-09T09:18:30.242Z,2.58
2023-05-09T09:21:05.534Z,2.92
2023-05-09T09:23:33.515Z,2.97
2023-05-09T09:26:04.410Z,2.95
2023-05-09T09:28:31.677Z,3.75
2023-05-09T09:30:58.790Z,2.90
2023-05-09T09:33:27.326Z,3.05
2023-05-09T09:35:56.898Z,3.38
2023-05-09T09:38:24.874Z,3.22
2023-05-09T09:40:56.184Z,3.08
2023-05-09T09:43:31.374Z,3.58
2023-05-09T09:46:03.189Z,3.13
2023-05-09T09:48:35.610Z,3.83
2023-05-09T09:51:11.930Z,2.88
2023-05-09T09:53:41.412Z,3.13
2023-05-09T09:56:09.635Z,3.45
2023-05-09T09:58:36.803Z,3.50
2023-05-09T10:01:10.618Z,3.40
2023-05-09T10:03:39.322Z,3.50
2023-05-09T10:06:13.753Z,3.08
2023-05-09T10:08:42.029Z,3.92
2023-05-09T10:11:12.401Z,3.53
2023-05-09T10:13:39.539Z,3.83
2023-05-09T10:16:08.932Z,3.53
2023-05-09T10:18:36.927Z,3.47
2023-05-09T10:21:08.013Z,3.40
2023-05-09T10:23:41.047Z,3.40
2023-05-09T10:26:31.866Z,4.38
2023-05-09T10:29:05.634Z,3.78
2023-05-09T10:31:37.170Z,3.60
2023-05-09T10:34:10.052Z,4.50
2023-05-09T10:36:37.881Z,3.85
2023-05-09T10:39:05.160Z,4.38
2023-05-09T10:41:32.871Z,3.30
2023-05-09T10:44:00.439Z,3.38
2023-05-09T10:46:28.524Z,3.65
2023-05-09T10:48:56.096Z,3.38
2023-05-09T10:51:25.288Z,3.42
2023-05-09T10:53:52.273Z,3.25
2023-05-09T10:56:35.526Z,3.58
2023-05-09T10:59:02.713Z,3.78
2023-05-09T11:01:39.644Z,3.42
2023-05-09T11:04:17.176Z,3.25
2023-05-09T11:06:53.996Z,3.28
2023-05-09T11:09:29.852Z,3.35
2023-05-09T11:11:59.610Z,3.85
2023-05-09T11:14:36.105Z,3.40
2023-05-09T11:17:15.058Z,2.70
2023-05-09T11:19:48.179Z,2.80
2023-05-09T11:22:28.305Z,2.85
2023-05-09T11:25:10.249Z,3.13
2023-05-09T11:27:47.897Z,2.90
2023-05-09T11:30:20.851Z,2.47
2023-05-09T11:32:55.859Z,3.10
2023-05-09T11:35:26.744Z,3.03
2023-05-09T11:38:00.451Z,3.97
2023-05-09T11:40:30.060Z,2.30
2023-05-09T11:42:59.127Z,2.40
2023-05-09T11:45:29.788Z,3.10
2023-05-09T11:47:57.616Z,2.00
2023-05-09T11:50:25.503Z,2.63
2023-05-09T11:52:53.913Z,2.05
2023-05-09T11:55:22.808Z,1.88
2023-05-09T11:57:54.782Z,2.20
2023-05-09T12:00:25.608Z,2.60
2023-05-09T12:02:53.405Z,1.80
2023-05-09T12:05:23.255Z,2.67
2023-05-09T12:07:51.884Z,2.00
2023-05-09T12:10:23.462Z,2.90
2023-05-09T12:12:53.348Z,2.63
2023-05-09T12:15:21.830Z,2.20
2023-05-09T12:18:05.903Z,2.20
2023-05-09T12:20:52.566Z,2.20
2023-05-09T12:23:19.776Z,5.05
2023-05-09T12:25:54.817Z,3.95
2023-05-09T12:28:24.020Z,1.85
2023-05-09T12:30:52.699Z,3.42
2023-05-09T12:33:21.253Z,2.28
2023-05-09T12:36:03.244Z,2.17
2023-05-09T12:38:30.394Z,2.25
2023-05-09T12:41:15.472Z,2.10
2023-05-09T12:43:51.091Z,4.05
2023-05-09T12:46:22.006Z,2.63
2023-05-09T12:48:49.491Z,2.00
2023-05-09T12:51:21.384Z,2.30
2023-05-09T12:53:49.124Z,2.50
2023-05-09T12:56:20.226Z,2.17
2023-05-09T12:58:55.288Z,2.40
2023-05-09T13:01:28.791Z,2.25
2023-05-09T13:04:05.071Z,3.35
2023-05-09T13:06:33.242Z,5.43
2023-05-09T13:09:06.319Z,3.20
2023-05-09T13:11:33.611Z,2.30
2023-05-09T13:14:02.317Z,3.00
2023-05-09T13:16:29.346Z,2.35
2023-05-09T13:18:56.369Z,2.53
2023-05-09T13:21:23.489Z,2.40
2023-05-09T13:23:51.245Z,2.92
2023-05-09T13:26:18.238Z,2.45
2023-05-09T13:28:45.203Z,2.65
2023-05-09T13:31:12.315Z,4.00
2023-05-09T13:33:39.471Z,2.30
2023-05-09T13:36:07.194Z,2.38
2023-05-09T13:38:38.595Z,2.92
2023-05-09T13:41:06.368Z,2.88
2023-05-09T13:43:34.264Z,10.30
2023-05-09T13:46:02.647Z,2.63
2023-05-09T13:48:29.564Z,2.53
2023-05-09T13:50:57.767Z,2.30
2023-05-09T13:53:24.698Z,2.38
2023-05-09T13:55:52.069Z,2.67
2023-05-09T13:58:19.215Z,2.67
2023-05-09T14:00:46.365Z,3.95
2023-05-09T14:03:13.361Z,2.33
2023-05-09T14:05:40.271Z,2.95
2023-05-09T14:08:07.953Z,2.40
2023-05-09T14:10:34.978Z,2.00
2023-05-09T14:13:02.801Z,2.83
2023-05-09T14:15:30.022Z,2.50
2023-05-09T14:17:57.617Z,2.28
2023-05-09T14:20:24.717Z,2.65
2023-05-09T14:22:52.118Z,2.83
2023-05-09T14:25:19.447Z,2.17
2023-05-09T14:27:46.808Z,2.35
2023-05-09T14:30:14.288Z,2.40
2023-05-09T14:32:41.554Z,2.33
2023-05-09T14:35:09.525Z,2.45
2023-05-09T14:37:37.468Z,2.38
2023-05-09T14:40:05.713Z,2.00
2023-05-09T14:42:32.944Z,2.25
2023-05-09T14:44:59.896Z,2.65
2023-05-09T14:47:27.213Z,2.47
2023-05-09T14:49:54.210Z,2.90
2023-05-09T14:52:21.235Z,2.70
2023-05-09T14:54:48.153Z,2.47
2023-05-09T14:57:15.169Z,2.40
2023-05-09T14:59:42.276Z,3.35
2023-05-09T15:02:09.300Z,2.40
2023-05-09T15:04:36.240Z,2.50
2023-05-09T15:07:03.266Z,2.03
2023-05-09T15:09:30.185Z,2.25
2023-05-09T15:11:57.093Z,2.20
2023-05-09T15:14:24.120Z,2.45
2023-05-09T15:16:52.249Z,2.63
2023-05-09T15:19:19.651Z,2.28
2023-05-09T15:21:46.693Z,2.50
2023-05-09T15:24:13.732Z,3.58
2023-05-09T15:26:40.802Z,2.13
2023-05-09T15:29:07.759Z,2.80
2023-05-09T15:31:36.847Z,2.53
2023-05-09T15:34:04.574Z,2.65
2023-05-09T15:36:33.765Z,2.40
2023-05-09T15:39:01.175Z,1.88
2023-05-09T15:41:28.667Z,2.00
2023-05-09T15:43:55.981Z,1.63
2023-05-09T15:46:23.481Z,2.05
2023-05-09T15:48:50.649Z,2.25
2023-05-09T15:51:17.659Z,2.20
2023-05-09T15:53:44.531Z,1.70
2023-05-09T15:56:11.893Z,2.10
2023-05-09T15:58:40.302Z,1.80
2023-05-09T16:01:08.293Z,1.90
2023-05-09T16:03:35.745Z,1.92
2023-05-09T16:06:03.320Z,1.88
2023-05-09T16:08:30.244Z,1.80
2023-05-09T16:11:00.822Z,3.35
2023-05-09T16:13:28.308Z,1.88
2023-05-09T16:15:55.707Z,1.75
2023-05-09T16:18:22.890Z,1.83
2023-05-09T16:20:49.875Z,1.75
2023-05-09T16:23:17.003Z,1.70
2023-05-09T16:25:44.932Z,1.80
2023-05-09T16:28:12.256Z,1.63
2023-05-09T16:30:39.166Z,1.85
2023-05-09T16:33:06.208Z,2.25
2023-05-09T16:35:33.991Z,1.70
2023-05-09T16:38:00.967Z,2.00
2023-05-09T16:40:28.564Z,4.68
2023-05-09T16:42:55.778Z,2.25
2023-05-09T16:45:22.790Z,2.08
2023-05-09T16:47:51.087Z,2.15
2023-05-09T16:50:18.278Z,2.03
2023-05-09T16:52:45.266Z,2.70
2023-05-09T16:55:12.305Z,1.77
2023-05-09T16:57:39.393Z,2.10
2023-05-09T17:00:07.880Z,2.35
2023-05-09T17:02:36.330Z,2.20
2023-05-09T17:05:04.898Z,2.10
2023-05-09T17:07:32.298Z,1.90
2023-05-09T17:09:59.471Z,2.13
2023-05-09T17:12:27.647Z,5.63
2023-05-09T17:14:54.800Z,2.33
2023-05-09T17:17:21.784Z,4.93
2023-05-09T17:19:49.040Z,2.63
2023-05-09T17:22:16.020Z,1.75
2023-05-09T17:24:42.962Z,1.58
2023-05-09T17:27:11.413Z,1.67
2023-05-09T17:29:38.483Z,1.40
2023-05-09T17:32:05.733Z,2.30
2023-05-09T17:34:32.867Z,1.40
2023-05-09T17:37:02.184Z,1.30
2023-05-09T17:39:29.378Z,1.70
2023-05-09T17:41:56.463Z,1.48
2023-05-09T17:44:24.065Z,1.70
2023-05-09T17:46:51.219Z,1.87
2023-05-09T17:49:18.460Z,1.70
2023-05-09T17:51:45.510Z,1.95
2023-05-09T17:54:12.968Z,2.00
2023-05-09T17:56:40.205Z,1.70
2023-05-09T17:59:07.856Z,1.60
2023-05-09T18:01:34.987Z,1.90
2023-05-09T18:04:02.052Z,2.07
2023-05-09T18:06:29.284Z,2.00
2023-05-09T18:08:56.244Z,2.27
2023-05-09T18:11:23.363Z,2.00
2023-05-09T18:13:50.585Z,2.97
2023-05-09T18:16:17.642Z,1.97
2023-05-09T18:18:44.921Z,2.50
2023-05-09T18:21:12.641Z,3.03
2023-05-09T18:23:40.450Z,2.47
2023-05-09T18:26:08.648Z,2.90
2023-05-09T18:28:44.459Z,2.50
2023-05-09T18:31:12.266Z,2.80
2023-05-09T18:33:39.885Z,3.00
2023-05-09T18:36:11.541Z,3.17
2023-05-09T18:38:39.715Z,3.23
2023-05-09T18:41:08.803Z,3.30
2023-05-09T18:43:37.490Z,3.77
2023-05-09T18:46:08.412Z,3.90
2023-05-09T18:48:35.639Z,3.67
2023-05-09T18:51:03.620Z,3.63
2023-05-09T18:53:30.947Z,3.47
2023-05-09T18:55:57.944Z,3.60
2023-05-09T18:58:25.160Z,5.17
2023-05-09T19:00:53.084Z,3.93
2023-05-09T19:03:20.979Z,3.80
2023-05-09T19:05:47.952Z,4.13
2023-05-09T19:08:14.926Z,4.17
2023-05-09T19:10:42.480Z,4.30
2023-05-09T19:13:09.742Z,4.33
2023-05-09T19:15:36.804Z,4.57
2023-05-09T19:18:07.007Z,4.93
2023-05-09T19:20:34.071Z,4.40
2023-05-09T19:23:01.593Z,4.90
2023-05-09T19:25:30.507Z,5.22
2023-05-09T19:27:57.392Z,5.23
2023-05-09T19:30:24.429Z,5.17
2023-05-09T19:32:52.704Z,5.63
2023-05-09T19:35:21.920Z,5.40
2023-05-09T19:37:48.825Z,5.93
2023-05-09T19:40:16.018Z,6.03
2023-05-09T19:42:43.095Z,6.03
2023-05-09T19:45:10.751Z,6.80
2023-05-09T19:47:37.726Z,6.57
2023-05-09T19:50:05.458Z,6.73
2023-05-09T19:52:32.386Z,6.73
2023-05-09T19:54:59.381Z,7.07
2023-05-09T19:57:26.344Z,7.00
2023-05-09T19:59:54.587Z,6.87
2023-05-09T20:02:21.720Z,7.10
2023-05-09T20:04:50.021Z,7.05
2023-05-09T20:07:17.844Z,7.10
2023-05-09T20:09:44.891Z,7.40
2023-05-09T20:12:13.033Z,8.10
2023-05-09T20:14:40.089Z,7.10
2023-05-09T20:17:07.034Z,7.83
2023-05-09T20:19:34.305Z,7.80
2023-05-09T20:22:02.328Z,8.10
2023-05-09T20:24:31.395Z,8.13
2023-05-09T20:26:58.657Z,7.60
2023-05-09T20:29:26.035Z,7.90
2023-05-09T20:31:53.043Z,9.00
2023-05-09T20:34:21.384Z,8.30
2023-05-09T20:36:53.200Z,8.60
2023-05-09T20:39:21.578Z,9.03
2023-05-09T20:41:50.559Z,8.37
2023-05-09T20:44:18.772Z,8.77
2023-05-09T20:46:46.176Z,8.53
2023-05-09T20:49:13.503Z,9.73
2023-05-09T20:51:40.899Z,8.67
2023-05-09T20:54:08.353Z,9.07
2023-05-09T20:56:35.672Z,9.27
2023-05-09T20:59:04.198Z,8.73
2023-05-09T21:01:35.924Z,8.63
2023-05-09T21:04:05.948Z,7.73
2023-05-09T21:06:33.372Z,6.73
2023-05-09T21:09:00.632Z,6.90
2023-05-09T21:11:27.782Z,7.60
2023-05-09T21:13:54.870Z,6.57
2023-05-09T21:16:23.064Z,7.47
2023-05-09T21:18:50.315Z,7.20
2023-05-09T21:21:17.301Z,7.00
2023-05-09T21:23:44.484Z,7.17
2023-05-09T21:26:11.575Z,7.03
2023-05-09T21:28:38.746Z,7.53
2023-05-09T21:31:06.460Z,7.60
2023-05-09T21:33:34.269Z,6.60
2023-05-09T21:36:02.327Z,7.28
2023-05-09T21:38:29.360Z,7.50
2023-05-09T21:40:56.351Z,7.50
2023-05-09T21:43:23.249Z,7.47
2023-05-09T21:45:50.236Z,7.03
2023-05-09T21:48:17.264Z,7.20
2023-05-09T21:50:46.057Z,6.53
2023-05-09T21:53:13.941Z,6.00
2023-05-09T21:55:41.731Z,5.90
2023-05-09T21:58:08.778Z,5.30
2023-05-09T22:00:35.771Z,7.07
2023-05-09T22:03:02.959Z,7.07
2023-05-09T22:05:29.997Z,6.70
2023-05-09T22:07:56.962Z,6.97
2023-05-09T22:10:23.936Z,8.30
2023-05-09T22:12:50.954Z,7.50
2023-05-09T22:15:18.228Z,8.40
2023-05-09T22:17:45.315Z,7.30
2023-05-09T22:20:12.893Z,7.63
2023-05-09T22:22:39.893Z,7.00
2023-05-09T22:25:07.238Z,6.97
2023-05-09T22:27:34.160Z,6.23
2023-05-09T22:30:01.578Z,6.73
2023-05-09T22:32:28.785Z,5.27
2023-05-09T22:34:55.770Z,5.30
2023-05-09T22:37:22.742Z,5.03
2023-05-09T22:39:50.417Z,5.00
2023-05-09T22:42:17.446Z,4.97
2023-05-09T22:44:44.844Z,4.73
2023-05-09T22:47:11.938Z,4.50
2023-05-09T22:49:38.795Z,4.20
2023-05-09T22:52:05.779Z,3.80
2023-05-09T22:54:33.355Z,4.77
2023-05-09T22:57:00.331Z,4.33
2023-05-09T22:59:27.260Z,3.77
2023-05-09T23:01:54.202Z,3.80
2023-05-09T23:04:21.644Z,3.50
2023-05-09T23:06:48.568Z,4.97
2023-05-09T23:09:15.635Z,3.50
2023-05-09T23:11:42.782Z,3.60
2023-05-09T23:14:09.769Z,4.50
2023-05-09T23:16:36.756Z,4.03
2023-05-09T23:19:03.744Z,4.00
2023-05-09T23:21:30.771Z,4.63
2023-05-09T23:23:57.670Z,4.30
2023-05-09T23:26:24.745Z,4.57
2023-05-09T23:28:51.900Z,5.27
2023-05-09T23:31:18.975Z,5.30
2023-05-09T23:33:45.928Z,6.00
2023-05-09T23:36:12.941Z,5.80
2023-05-09T23:38:39.981Z,6.30
2023-05-09T23:41:07.356Z,7.23
2023-05-09T23:43:34.403Z,10.43
2023-05-09T23:46:01.887Z,7.07
2023-05-09T23:48:28.928Z,7.83
2023-05-09T23:50:56.259Z,9.00
2023-05-09T23:53:23.286Z,10.43
2023-05-09T23:55:50.293Z,8.17
2023-05-09T23:58:17.207Z,8.63
